SBBR/BSB METAR and TAF weather

Enter ICAO airport designator
Station Type Date Time Source
SBBR METAR 2020/01/23 21:00 UTC NOAA

SBBR 232100Z 30008KT 9999 SCT015 BKN020 FEW030TCU 23/21 Q1010


Station Type Date Time Source
SBBR Decoded METAR 2020/01/23 21:00 UTC NOAA

Brasilia Aeroporto , Brazil (SBBR) 15-52S 047-56W 1061M
Jan 23, 2020 - 04:00 PM EST / 2020.01.23 2100 UTC
Wind: from the WNW (300 degrees) at 9 MPH (8 KT):0
Visibility: greater than 7 mile(s):0
Sky conditions: mostly cloudy
Weather: Towering cumulus clouds observed
Temperature: 73 F (23 C)
Dew Point: 69 F (21 C)
Relative Humidity: 88%
Pressure (altimeter): 29.83 in. Hg (1010 hPa)
ob: SBBR 232100Z 30008KT 9999 SCT015 BKN020 FEW030TCU 23/21 Q1010
cycle: 21

Station Type Date Time Source
SBBR TAF 2020/01/23 18:41 UTC NOAA

TAF SBBR 231600Z 2318/2418 32008KT 7000 BKN013 FEW035TCU TX25/2318Z TN22/2409Z
TEMPO 2319/2322 3000 RA BKN010 BKN015 FEW035TCU PROB40 2400/2404 3000 TSRA BKN010 BKN015 FEW030CB
BECMG 2405/2407 BKN008 BKN015 FEW035TCU
BECMG 2412/2414 BKN010 BKN015 FEW030TCU
TEMPO 2415/2417 3000 RA BKN006 BKN015 FEW030TCU
RMK PEI

Example: see airport list